Time;durP1;ratioP1;P1;durP2;ratioP2;P2;SDS_P1;SDS_P2;PMS_P1;PMS_P2;Temp;Humidity;BMP_temperature;BMP_pressure;BME280_temperature;BME280_humidity;BME280_pressure;Samples;Min_cycle;Max_cycle;Signal;HPM_P1;HPM_P2
2024/02/10 00:01:17;;;;;;;18.55;11.13;;;;;;;6.00;63.63;98662.88;4986209;28;20228;-74
2024/02/10 00:03:46;;;;;;;23.20;11.85;;;;;;;5.94;63.49;98668.41;4993350;28;20032;-78
2024/02/10 00:06:15;;;;;;;21.00;11.73;;;;;;;5.96;63.56;98665.75;5015332;28;21010;-76
2024/02/10 00:08:44;;;;;;;27.63;11.88;;;;;;;5.93;63.40;98673.72;5038721;28;20032;-75
2024/02/10 00:11:10;;;;;;;21.00;11.85;;;;;;;5.87;63.57;98678.28;5047503;28;20628;-72
2024/02/10 00:13:38;;;;;;;20.65;11.25;;;;;;;5.89;63.28;98675.63;5037845;28;20512;-73
2024/02/10 00:16:04;;;;;;;19.70;12.07;;;;;;;5.81;63.22;98677.78;5046923;28;20043;-72
2024/02/10 00:18:31;;;;;;;19.23;10.82;;;;;;;5.82;63.47;98676.88;5058155;28;20038;-71
2024/02/10 00:20:56;;;;;;;19.58;12.07;;;;;;;5.75;63.38;98675.53;5045731;28;20040;-72
2024/02/10 00:23:24;;;;;;;21.73;12.20;;;;;;;5.74;63.90;98676.47;5009712;28;20118;-69
2024/02/10 00:25:52;;;;;;;21.00;11.80;;;;;;;5.76;63.50;98669.44;5038339;28;20056;-70
2024/02/10 00:28:19;;;;;;;20.02;10.77;;;;;;;5.77;63.72;98681.47;5054932;28;20027;-69
2024/02/10 00:30:44;;;;;;;24.15;12.75;;;;;;;5.79;63.59;98672.72;5041678;28;20071;-70
2024/02/10 00:33:10;;;;;;;19.50;12.10;;;;;;;5.75;64.07;98672.94;4997385;28;20366;-70
2024/02/10 00:35:35;;;;;;;20.95;12.60;;;;;;;5.76;63.70;98679.81;5049679;28;20032;-70
2024/02/10 00:38:01;;;;;;;20.52;12.30;;;;;;;5.79;63.60;98679.63;5023911;28;20685;-69
2024/02/10 00:40:27;;;;;;;19.95;12.18;;;;;;;5.75;63.71;98678.13;5054739;28;20036;-69
2024/02/10 00:42:53;;;;;;;20.80;11.60;;;;;;;5.69;64.24;98681.06;5049952;28;20051;-69
2024/02/10 00:45:19;;;;;;;25.90;13.43;;;;;;;5.75;63.65;98678.97;5053063;28;20508;-70
2024/02/10 00:47:45;;;;;;;19.65;12.13;;;;;;;5.74;63.72;98676.47;5056508;28;20048;-73
2024/02/10 00:50:11;;;;;;;18.67;11.55;;;;;;;5.75;63.70;98683.31;5047526;28;20397;-70
2024/02/10 00:52:37;;;;;;;18.83;11.52;;;;;;;5.73;63.68;98683.41;5038930;28;20704;-72
2024/02/10 00:55:03;;;;;;;19.52;11.60;;;;;;;5.76;63.52;98687.59;5021532;28;20044;-72
2024/02/10 00:57:29;;;;;;;15.60;10.60;;;;;;;5.79;63.33;98685.69;5037417;28;20044;-72
2024/02/10 00:59:56;;;;;;;19.42;11.63;;;;;;;5.80;63.26;98681.31;5049284;28;20040;-72
2024/02/10 01:02:22;;;;;;;19.55;11.43;;;;;;;5.85;63.41;98687.06;5033558;28;20069;-73
2024/02/10 01:04:48;;;;;;;18.90;11.15;;;;;;;5.83;63.07;98678.53;5051277;28;20039;-72
2024/02/10 01:07:15;;;;;;;18.80;11.50;;;;;;;5.85;63.13;98685.31;5048823;28;20426;-72
2024/02/10 01:09:46;;;;;;;18.20;11.48;;;;;;;5.83;63.08;98687.16;5060150;28;20036;-72
2024/02/10 01:12:16;;;;;;;19.37;11.63;;;;;;;5.79;62.67;98690.00;5020610;28;20964;-72
2024/02/10 01:14:42;;;;;;;19.15;11.07;;;;;;;5.75;63.07;98684.16;5059861;28;20269;-71
2024/02/10 01:17:11;;;;;;;15.50;10.93;;;;;;;5.74;63.26;98686.84;5049728;28;20414;-73
2024/02/10 01:20:01;;;;;;;24.92;11.25;;;;;;;5.73;63.27;98691.19;5043959;28;20474;-69
2024/02/10 01:22:28;;;;;;;19.10;12.35;;;;;;;5.75;63.23;98684.16;4986784;28;20040;-69
2024/02/10 01:24:55;;;;;;;19.65;11.30;;;;;;;5.76;63.29;98679.81;4993612;28;20071;-68
2024/02/10 01:27:22;;;;;;;18.38;11.00;;;;;;;5.74;63.23;98676.47;5004409;28;20214;-76
2024/02/10 01:29:52;;;;;;;21.25;11.95;;;;;;;5.70;63.03;98678.38;4980279;28;20184;-75
2024/02/10 01:32:20;;;;;;;17.92;11.45;;;;;;;5.63;63.31;98680.47;5008718;28;20228;-73
2024/02/10 01:34:50;;;;;;;16.73;11.63;;;;;;;5.66;62.98;98679.50;5058183;28;20032;-72
2024/02/10 01:37:19;;;;;;;24.52;12.13;;;;;;;5.62;63.15;98684.00;5047955;28;20053;-72
2024/02/10 01:39:49;;;;;;;23.27;11.45;;;;;;;5.51;63.25;98686.34;5042826;28;20032;-73
2024/02/10 01:42:15;;;;;;;18.95;12.23;;;;;;;5.58;63.32;98682.47;5047823;28;21032;-72
2024/02/10 01:44:43;;;;;;;19.98;11.85;;;;;;;5.52;63.61;98682.81;5042179;28;20024;-72
2024/02/10 01:47:12;;;;;;;22.35;11.95;;;;;;;5.62;63.07;98683.16;5031457;28;20040;-72
2024/02/10 01:49:39;;;;;;;23.33;12.10;;;;;;;5.54;63.40;98691.34;5060690;28;20437;-73
2024/02/10 01:52:06;;;;;;;21.25;12.35;;;;;;;5.49;63.68;98685.56;5033390;28;20123;-73
2024/02/10 01:54:33;;;;;;;18.98;11.45;;;;;;;5.53;63.41;98689.69;5056760;28;20094;-73
2024/02/10 01:57:00;;;;;;;16.02;10.52;;;;;;;5.61;63.04;98690.09;5053842;28;20135;-73
2024/02/10 01:59:26;;;;;;;20.17;11.55;;;;;;;5.61;63.09;98692.69;5033803;28;20039;-73
2024/02/10 02:01:52;;;;;;;20.73;11.73;;;;;;;5.56;63.13;98694.69;5059510;28;20040;-73
2024/02/10 02:04:22;;;;;;;23.55;12.00;;;;;;;5.48;62.84;98694.28;5048870;28;21548;-72
2024/02/10 02:06:49;;;;;;;18.48;12.43;;;;;;;5.37;63.02;98699.16;5059696;28;20253;-73
2024/02/10 02:09:15;;;;;;;21.08;12.20;;;;;;;5.24;63.54;98699.84;5030228;28;20122;-73
2024/02/10 02:11:49;;;;;;;21.13;12.63;;;;;;;5.30;63.91;98692.66;5041509;28;20031;-73
2024/02/10 02:14:15;;;;;;;17.98;10.88;;;;;;;5.29;63.88;98696.16;5028232;28;20040;-72
2024/02/10 02:16:46;;;;;;;17.98;11.00;;;;;;;5.38;63.32;98700.84;5059166;28;20036;-72
2024/02/10 02:19:13;;;;;;;20.45;11.10;;;;;;;5.35;63.66;98701.03;5031596;28;20032;-71
2024/02/10 02:21:41;;;;;;;17.10;11.02;;;;;;;5.37;63.37;98702.63;5040559;28;20054;-72
2024/02/10 02:24:06;;;;;;;21.58;11.13;;;;;;;5.32;63.69;98696.00;5051321;28;20113;-71
2024/02/10 02:26:32;;;;;;;23.42;10.98;;;;;;;5.37;63.52;98700.03;5053576;28;20032;-71
2024/02/10 02:28:57;;;;;;;23.17;12.20;;;;;;;5.41;63.66;98695.50;5060028;28;20035;-71
2024/02/10 02:31:23;;;;;;;15.75;11.02;;;;;;;5.34;63.48;98697.56;5047108;28;20048;-71
2024/02/10 02:33:48;;;;;;;19.50;12.20;;;;;;;5.41;63.44;98687.72;5058928;28;20126;-72
2024/02/10 02:36:17;;;;;;;20.27;11.82;;;;;;;5.40;63.34;98678.31;5047123;28;20122;-73
2024/02/10 02:38:43;;;;;;;21.60;10.75;;;;;;;5.45;63.70;98686.66;5060612;28;20016;-73
2024/02/10 02:41:09;;;;;;;16.20;11.50;;;;;;;5.47;63.56;98682.22;5032749;28;20040;-72
2024/02/10 02:43:35;;;;;;;18.48;11.27;;;;;;;5.45;63.56;98679.72;5038907;28;20401;-68
2024/02/10 02:46:06;;;;;;;19.20;11.60;;;;;;;5.46;63.28;98684.00;5037534;28;20050;-66
2024/02/10 02:48:32;;;;;;;22.73;11.63;;;;;;;5.48;63.18;98678.72;5056449;28;20767;-74
2024/02/10 02:50:58;;;;;;;16.33;11.10;;;;;;;5.48;63.20;98686.50;5057637;28;20046;-74
2024/02/10 02:53:25;;;;;;;22.60;11.18;;;;;;;5.42;63.57;98694.59;5050855;28;20241;-74
2024/02/10 02:55:52;;;;;;;13.45;10.20;;;;;;;5.48;63.14;98688.25;5032411;28;20043;-73
2024/02/10 02:58:18;;;;;;;16.00;9.90;;;;;;;5.52;63.39;98695.75;5047446;28;20027;-70
2024/02/10 03:00:47;;;;;;;14.45;10.18;;;;;;;5.54;63.15;98695.69;5058549;28;20374;-69
2024/02/10 03:03:14;;;;;;;16.67;10.95;;;;;;;5.44;63.34;98683.22;5011262;28;20081;-70
2024/02/10 03:05:40;;;;;;;17.95;10.23;;;;;;;5.39;63.75;98681.78;5057648;28;20030;-69
2024/02/10 03:08:07;;;;;;;14.00;10.60;;;;;;;5.48;63.14;98686.50;5035817;28;20036;-70
2024/02/10 03:10:32;;;;;;;18.27;10.23;;;;;;;5.53;63.59;98676.72;5053217;28;20846;-69
2024/02/10 03:12:58;;;;;;;16.48;9.45;;;;;;;5.52;63.41;98688.00;5059215;28;20103;-69
2024/02/10 03:15:27;;;;;;;15.50;9.52;;;;;;;5.45;63.77;98686.66;5046231;28;20566;-69
2024/02/10 03:17:54;;;;;;;15.45;9.77;;;;;;;5.43;63.93;98688.47;5038497;28;20040;-67
2024/02/10 03:20:28;;;;;;;18.02;9.63;;;;;;;5.59;63.24;98691.94;5046613;28;20380;-66
2024/02/10 03:22:58;;;;;;;17.75;10.73;;;;;;;5.57;63.27;98680.81;5057014;28;20810;-69
2024/02/10 03:25:26;;;;;;;16.52;9.95;;;;;;;5.53;63.34;98688.84;5028270;28;20518;-67
2024/02/10 03:27:52;;;;;;;21.30;11.07;;;;;;;5.61;63.21;98686.66;5056474;28;20158;-70
2024/02/10 03:30:17;;;;;;;16.08;9.20;;;;;;;5.56;63.50;98684.31;5047858;28;20032;-72
2024/02/10 03:32:44;;;;;;;18.23;10.25;;;;;;;5.55;63.41;98693.03;5036360;28;20080;-72
2024/02/10 03:35:09;;;;;;;16.15;9.10;;;;;;;5.65;62.96;98694.19;5053731;28;20054;-71
2024/02/10 03:37:35;;;;;;;16.98;8.88;;;;;;;5.49;63.45;98692.53;5048634;28;20039;-69
2024/02/10 03:40:09;;;;;;;12.90;8.73;;;;;;;5.61;63.55;98692.69;5040088;28;20043;-72
2024/02/10 03:42:38;;;;;;;17.40;10.00;;;;;;;5.67;63.17;98687.16;5031105;28;20852;-70
2024/02/10 03:45:05;;;;;;;18.27;9.10;;;;;;;5.62;63.07;98694.34;5058222;28;20116;-70
2024/02/10 03:47:31;;;;;;;15.55;8.80;;;;;;;5.63;63.03;98697.78;5046718;28;20171;-70
2024/02/10 03:49:58;;;;;;;14.30;8.68;;;;;;;5.56;63.37;98694.69;5038268;28;20040;-70
2024/02/10 03:52:25;;;;;;;15.18;9.27;;;;;;;5.62;62.86;98688.34;5046877;28;20580;-70
2024/02/10 03:54:51;;;;;;;16.08;9.45;;;;;;;5.55;62.84;98690.44;5055042;28;20047;-73
2024/02/10 03:57:21;;;;;;;15.80;9.15;;;;;;;5.50;63.03;98691.59;5047510;28;20039;-70
2024/02/10 03:59:47;;;;;;;12.82;7.80;;;;;;;5.55;63.00;98687.00;5058743;28;20676;-70
2024/02/10 04:02:15;;;;;;;14.18;8.90;;;;;;;5.50;63.15;98689.81;5030291;28;20097;-70
2024/02/10 04:04:41;;;;;;;15.45;9.00;;;;;;;5.49;63.06;98688.16;5035303;28;20028;-70
2024/02/10 04:07:07;;;;;;;15.32;9.80;;;;;;;5.49;62.91;98682.97;5057049;28;20066;-70
2024/02/10 04:09:32;;;;;;;12.18;8.52;;;;;;;5.43;62.95;98683.31;5029320;28;20032;-70
2024/02/10 04:11:58;;;;;;;13.63;9.30;;;;;;;5.35;63.43;98686.31;5057912;28;20043;-70
2024/02/10 04:14:23;;;;;;;15.77;8.55;;;;;;;5.43;63.41;98688.47;5022144;28;20095;-70
2024/02/10 04:16:52;;;;;;;13.88;7.85;;;;;;;5.40;63.15;98684.31;5030232;28;20044;-70
2024/02/10 04:19:19;;;;;;;16.65;8.77;;;;;;;5.28;63.17;98689.28;5040494;28;20067;-70
2024/02/10 04:21:50;;;;;;;14.32;7.97;;;;;;;5.29;63.24;98685.81;5053600;28;20043;-70
2024/02/10 04:24:17;;;;;;;17.98;8.43;;;;;;;5.24;63.25;98688.63;5053175;28;20036;-70
2024/02/10 04:26:43;;;;;;;13.90;7.80;;;;;;;5.17;63.34;98676.94;5011297;28;21753;-70
2024/02/10 04:29:12;;;;;;;13.57;7.93;;;;;;;5.22;62.99;98682.69;5021578;28;20041;-69
2024/02/10 04:31:39;;;;;;;19.60;9.88;;;;;;;5.14;62.90;98688.28;5023864;28;21317;-71
2024/02/10 04:34:05;;;;;;;14.88;8.45;;;;;;;4.95;63.45;98682.41;5056392;28;20031;-70
2024/02/10 04:36:31;;;;;;;15.05;7.90;;;;;;;5.01;63.14;98684.63;5022589;28;20040;-70
2024/02/10 04:38:57;;;;;;;13.07;7.82;;;;;;;5.07;63.06;98684.34;5007748;28;20025;-68
2024/02/10 04:41:23;;;;;;;19.85;8.07;;;;;;;5.00;63.11;98675.22;5012427;28;20794;-70
2024/02/10 04:43:48;;;;;;;12.13;7.72;;;;;;;5.01;63.32;98688.09;5061851;28;20551;-68
2024/02/10 04:46:16;;;;;;;14.85;8.25;;;;;;;5.05;63.12;98686.16;5057624;28;20592;-68
2024/02/10 04:48:43;;;;;;;13.65;8.60;;;;;;;4.93;63.74;98686.81;5014306;28;20689;-68
2024/02/10 04:51:08;;;;;;;16.02;9.15;;;;;;;5.01;63.34;98689.81;5010814;28;20620;-67
2024/02/10 04:53:34;;;;;;;13.80;8.68;;;;;;;5.02;63.41;98691.50;5042362;28;20027;-68
2024/02/10 04:55:59;;;;;;;11.43;8.10;;;;;;;5.02;63.56;98689.75;5057118;28;20047;-70
2024/02/10 04:58:25;;;;;;;16.17;8.30;;;;;;;4.97;63.47;98690.91;5031001;28;20052;-69
2024/02/10 05:00:50;;;;;;;13.98;9.18;;;;;;;4.98;63.36;98688.22;5054929;28;20123;-69
2024/02/10 05:03:16;;;;;;;19.73;7.88;;;;;;;5.03;63.33;98688.84;5001000;28;20051;-70
2024/02/10 05:05:42;;;;;;;11.18;7.82;;;;;;;5.02;63.21;98694.09;5019207;28;20070;-69
2024/02/10 05:08:12;;;;;;;15.63;8.18;;;;;;;5.07;63.20;98699.88;5003476;28;20024;-70
2024/02/10 05:10:44;;;;;;;16.25;8.20;;;;;;;5.01;63.56;98689.81;5022510;28;20209;-69
2024/02/10 05:13:10;;;;;;;12.10;7.90;;;;;;;5.20;63.00;98698.31;5003198;28;20059;-71
2024/02/10 05:15:36;;;;;;;10.85;7.25;;;;;;;5.16;63.21;98696.78;4970196;28;20047;-65
2024/02/10 05:18:05;;;;;;;11.32;7.82;;;;;;;5.21;63.25;98693.97;5046629;28;20066;-66
2024/02/10 05:20:30;;;;;;;17.13;8.05;;;;;;;5.21;63.06;98693.97;5045627;28;20619;-64
2024/02/10 05:22:59;;;;;;;13.07;8.63;;;;;;;5.15;63.22;98702.06;5061039;28;20090;-66
2024/02/10 05:25:27;;;;;;;11.65;9.27;;;;;;;5.24;63.14;98694.66;5003775;28;20114;-65
2024/02/10 05:27:54;;;;;;;11.93;8.00;;;;;;;5.28;62.85;98700.53;5042013;28;20101;-66
2024/02/10 05:30:23;;;;;;;13.52;7.82;;;;;;;5.19;63.02;98704.44;5046380;28;20132;-65
2024/02/10 05:33:05;;;;;;;13.90;6.93;;;;;;;5.23;62.86;98702.50;5033692;28;20028;-66
2024/02/10 05:35:31;;;;;;;11.70;7.03;;;;;;;5.23;62.84;98698.16;5037668;28;20024;-71
2024/02/10 05:37:59;;;;;;;13.90;7.53;;;;;;;5.23;62.81;98702.50;5020159;28;20038;-70
2024/02/10 05:40:26;;;;;;;12.60;7.88;;;;;;;5.25;63.05;98700.66;5046057;28;20504;-71
2024/02/10 05:42:56;;;;;;;14.35;8.05;;;;;;;5.26;62.94;98702.34;5060287;28;20050;-71
2024/02/10 05:45:22;;;;;;;12.18;7.28;;;;;;;5.21;63.35;98705.19;5053230;28;20028;-71
2024/02/10 05:47:50;;;;;;;11.60;7.93;;;;;;;5.17;63.29;98703.66;5054890;28;20036;-71
2024/02/10 05:50:22;;;;;;;13.80;8.25;;;;;;;5.34;62.94;98702.75;5054195;28;20090;-70
2024/02/10 05:52:53;;;;;;;13.50;8.30;;;;;;;5.36;62.84;98703.53;5007561;28;20098;-71
2024/02/10 05:55:25;;;;;;;14.02;7.90;;;;;;;5.36;62.73;98705.28;5017575;28;20028;-71
2024/02/10 05:57:55;;;;;;;17.85;8.55;;;;;;;5.36;62.75;98706.09;5034893;28;20357;-71
2024/02/10 06:00:23;;;;;;;14.80;7.57;;;;;;;5.36;62.53;98706.09;5031468;28;20057;-71
2024/02/10 06:02:49;;;;;;;12.18;7.03;;;;;;;5.35;62.77;98711.41;4997115;28;20401;-71
2024/02/10 06:05:15;;;;;;;12.93;7.93;;;;;;;5.33;62.58;98721.81;5019482;28;20020;-72
2024/02/10 06:07:45;;;;;;;12.00;8.55;;;;;;;5.34;62.66;98720.06;4990429;28;20842;-69
2024/02/10 06:10:12;;;;;;;11.13;7.65;;;;;;;5.32;62.49;98722.72;4988594;28;20036;-71
2024/02/10 06:12:45;;;;;;;14.73;8.32;;;;;;;5.25;62.86;98727.38;4986187;28;20119;-71
2024/02/10 06:15:12;;;;;;;14.13;9.18;;;;;;;5.34;62.80;98725.25;5041959;28;20035;-69
2024/02/10 06:17:43;;;;;;;13.00;7.53;;;;;;;5.36;62.79;98726.00;5046115;28;20046;-70
2024/02/10 06:20:22;;;;;;;12.73;7.38;;;;;;;5.20;63.22;98721.63;5063422;28;20039;-70
2024/02/10 06:22:49;;;;;;;14.80;7.75;;;;;;;5.31;62.50;98725.41;5047373;28;20575;-69
2024/02/10 06:25:15;;;;;;;16.30;8.32;;;;;;;5.29;62.70;98727.25;5054147;28;20537;-69
2024/02/10 06:27:45;;;;;;;13.43;8.32;;;;;;;5.20;62.99;98728.56;5051454;28;20032;-70
2024/02/10 06:30:16;;;;;;;14.45;7.72;;;;;;;5.17;62.63;98729.56;5023832;28;20502;-67
2024/02/10 06:32:43;;;;;;;13.27;8.13;;;;;;;5.22;62.71;98735.34;5046800;28;20043;-69
2024/02/10 06:35:10;;;;;;;13.27;8.18;;;;;;;5.17;62.91;98737.34;5059073;28;20046;-72
2024/02/10 06:37:46;;;;;;;15.88;8.38;;;;;;;5.18;62.86;98736.41;5048592;28;20312;-71
2024/02/10 06:40:14;;;;;;;13.60;8.52;;;;;;;5.21;62.85;98741.44;5058691;28;20036;-71
2024/02/10 06:42:42;;;;;;;16.73;8.65;;;;;;;5.22;62.46;98750.88;5047566;28;20040;-72
2024/02/10 06:45:13;;;;;;;12.95;8.05;;;;;;;4.99;63.37;98757.25;5058386;28;20137;-72
2024/02/10 06:47:43;;;;;;;13.23;7.88;;;;;;;5.14;63.04;98754.78;5049276;28;20121;-72
2024/02/10 06:50:28;;;;;;;12.07;8.57;;;;;;;5.21;63.09;98756.97;5059431;28;20118;-71
2024/02/10 06:52:59;;;;;;;14.98;8.48;;;;;;;5.17;63.22;98760.63;5033496;28;20044;-69
2024/02/10 06:55:26;;;;;;;14.57;8.55;;;;;;;5.15;63.23;98767.66;5055928;28;20047;-69
2024/02/10 06:57:55;;;;;;;19.38;9.77;;;;;;;5.25;62.82;98762.81;5020836;28;21133;-69
2024/02/10 07:00:22;;;;;;;16.50;9.15;;;;;;;5.28;62.91;98777.38;5069887;28;20055;-69
2024/02/10 07:02:49;;;;;;;17.30;9.02;;;;;;;5.27;62.77;98765.34;5047752;28;20074;-69
2024/02/10 07:05:16;;;;;;;11.68;8.50;;;;;;;5.29;62.85;98768.69;5051569;28;20031;-69
2024/02/10 07:07:43;;;;;;;17.98;9.20;;;;;;;5.32;62.83;98773.69;5048502;28;20078;-69
2024/02/10 07:10:13;;;;;;;28.73;10.18;;;;;;;5.36;62.71;98777.81;5039528;28;20874;-69
2024/02/10 07:12:43;;;;;;;15.40;9.48;;;;;;;5.32;63.18;98789.25;5031432;28;20119;-69
2024/02/10 07:15:14;;;;;;;14.77;8.90;;;;;;;5.41;63.49;98791.34;5057305;28;20039;-69
2024/02/10 07:17:46;;;;;;;14.00;8.07;;;;;;;5.38;63.06;98791.53;5046985;28;20028;-68
2024/02/10 07:20:18;;;;;;;13.70;7.75;;;;;;;5.27;64.03;98792.06;5059301;28;20043;-67
2024/02/10 07:22:47;;;;;;;15.32;7.30;;;;;;;5.29;63.82;98792.84;5051200;28;20081;-70
2024/02/10 07:25:13;;;;;;;18.30;9.55;;;;;;;5.46;63.51;98791.97;5058203;28;20028;-69
2024/02/10 07:27:38;;;;;;;17.58;9.27;;;;;;;5.54;63.09;98799.34;5051705;28;20398;-72
2024/02/10 07:30:05;;;;;;;15.20;9.90;;;;;;;5.51;63.39;98797.75;5058467;28;20510;-70
2024/02/10 07:32:32;;;;;;;16.05;9.35;;;;;;;5.39;63.38;98800.97;5040105;28;20032;-67
2024/02/10 07:34:58;;;;;;;21.40;10.10;;;;;;;5.56;63.58;98798.34;5028726;28;20414;-66
2024/02/10 07:37:24;;;;;;;17.88;9.00;;;;;;;5.67;63.25;98801.19;5056595;28;20046;-65
2024/02/10 07:39:50;;;;;;;15.77;9.32;;;;;;;5.69;63.44;98803.72;5011818;28;20036;-69
2024/02/10 07:42:20;;;;;;;19.80;9.80;;;;;;;5.63;63.60;98799.69;5036151;28;20113;-68
2024/02/10 07:44:49;;;;;;;15.77;9.68;;;;;;;5.67;63.37;98803.78;5015375;28;20037;-68
2024/02/10 07:47:19;;;;;;;20.52;10.20;;;;;;;5.84;63.44;98802.09;5030717;28;20035;-65
2024/02/10 07:49:48;;;;;;;15.15;9.63;;;;;;;5.75;63.36;98802.53;5043325;28;20433;-67
2024/02/10 07:52:14;;;;;;;15.40;9.68;;;;;;;5.80;63.68;98809.19;5057165;28;20696;-70
2024/02/10 07:54:41;;;;;;;17.23;9.57;;;;;;;5.92;63.30;98812.03;5048288;28;20070;-63
2024/02/10 07:57:11;;;;;;;20.65;10.55;;;;;;;5.93;63.30;98817.16;5058991;28;20089;-70
2024/02/10 07:59:38;;;;;;;26.58;10.35;;;;;;;5.96;63.37;98824.75;5030391;28;20036;-67
2024/02/10 08:02:05;;;;;;;19.25;9.68;;;;;;;5.99;63.57;98824.56;5041294;28;20043;-67
2024/02/10 08:04:30;;;;;;;15.15;9.18;;;;;;;5.97;63.77;98834.22;5056565;28;20472;-67
2024/02/10 08:06:56;;;;;;;21.02;10.07;;;;;;;6.08;63.23;98837.06;5046826;28;20474;-69
2024/02/10 08:09:21;;;;;;;19.27;9.20;;;;;;;5.97;63.68;98838.53;5039019;28;20898;-73
2024/02/10 08:11:47;;;;;;;17.15;8.57;;;;;;;6.09;63.63;98848.28;5027236;28;20119;-67
2024/02/10 08:14:14;;;;;;;15.13;8.20;;;;;;;6.03;63.54;98849.44;5056319;28;20031;-66
2024/02/10 08:16:42;;;;;;;16.95;9.57;;;;;;;6.34;62.97;98850.41;5057607;28;20039;-74
2024/02/10 08:19:07;;;;;;;12.98;9.40;;;;;;;6.46;62.83;98852.34;5056510;28;20032;-73
2024/02/10 08:21:33;;;;;;;15.05;8.73;;;;;;;6.64;62.46;98854.81;5043032;28;20122;-68
2024/02/10 08:23:58;;;;;;;13.70;9.20;;;;;;;6.53;62.74;98863.22;5031606;28;20050;-69
2024/02/10 08:26:26;;;;;;;17.58;8.98;;;;;;;6.61;62.36;98871.41;5039636;28;20043;-69
2024/02/10 08:28:55;;;;;;;19.23;8.98;;;;;;;6.65;62.32;98872.06;5033237;28;20394;-71
2024/02/10 08:31:21;;;;;;;15.93;8.23;;;;;;;6.71;62.44;98871.75;5059263;28;20040;-73
2024/02/10 08:33:50;;;;;;;16.02;9.15;;;;;;;6.73;62.68;98872.50;5050500;28;20490;-70
2024/02/10 08:36:17;;;;;;;15.00;8.45;;;;;;;6.64;62.55;98872.97;5014959;28;20083;-67
2024/02/10 08:38:43;;;;;;;13.77;7.75;;;;;;;6.87;62.54;98872.53;5027152;28;20583;-68
2024/02/10 08:41:10;;;;;;;13.73;7.97;;;;;;;7.16;63.04;98866.63;4997764;28;20047;-68
2024/02/10 08:43:36;;;;;;;15.15;9.10;;;;;;;8.44;62.63;98873.63;5026033;28;20802;-68
2024/02/10 08:46:08;;;;;;;17.48;8.57;;;;;;;9.02;58.12;98882.13;5002989;28;20736;-67
2024/02/10 08:48:34;;;;;;;;;;;;;;;8.79;57.92;98883.63;5013010;28;20138;-70
2024/02/10 08:51:00;;;;;;;11.57;7.63;;;;;;;8.39;58.54;98880.91;5003341;28;19947;-70
2024/02/10 08:53:27;;;;;;;11.27;7.68;;;;;;;8.00;58.67;98879.81;5012669;28;20028;-68
2024/02/10 08:55:53;;;;;;;13.25;6.20;;;;;;;7.88;59.29;98884.00;4999348;28;20968;-65
2024/02/10 08:58:19;;;;;;;11.35;7.57;;;;;;;7.53;60.06;98880.88;5003039;28;20043;-65
2024/02/10 09:00:46;;;;;;;16.27;8.07;;;;;;;7.56;60.04;98896.34;5045497;28;20059;-65
2024/02/10 09:03:15;;;;;;;10.82;6.85;;;;;;;7.51;59.93;98900.94;5019911;28;20165;-65
2024/02/10 09:05:41;;;;;;;14.00;7.90;;;;;;;7.26;60.89;98897.16;5057902;28;20069;-66
2024/02/10 09:08:07;;;;;;;11.48;7.78;;;;;;;7.39;60.84;98899.88;5045616;28;20152;-65
2024/02/10 09:10:33;;;;;;;13.77;7.25;;;;;;;7.47;60.62;98908.09;5058786;28;20024;-65
2024/02/10 09:12:59;;;;;;;14.65;7.47;;;;;;;7.45;60.46;98906.50;5046167;28;20034;-65
2024/02/10 09:15:26;;;;;;;13.68;7.55;;;;;;;7.45;60.93;98909.09;5056070;28;20028;-66
2024/02/10 09:17:52;;;;;;;16.65;8.00;;;;;;;7.63;60.33;98910.66;5004483;28;20514;-65
2024/02/10 09:20:17;;;;;;;10.57;7.97;;;;;;;7.70;60.45;98911.97;5027164;28;20069;-64
2024/02/10 09:22:43;;;;;;;14.65;7.65;;;;;;;7.91;59.66;98922.88;5050958;28;20032;-65
2024/02/10 09:25:12;;;;;;;12.18;7.85;;;;;;;7.65;60.25;98914.00;5046898;28;22183;-66
2024/02/10 09:27:38;;;;;;;11.63;7.07;;;;;;;7.35;60.94;98920.94;5035811;28;20047;-64
2024/02/10 09:30:04;;;;;;;13.55;7.57;;;;;;;7.69;60.36;98910.28;5027788;28;20028;-65
2024/02/10 09:32:29;;;;;;;16.80;7.28;;;;;;;7.65;60.03;98911.41;5029540;28;20095;-64
2024/02/10 09:34:55;;;;;;;23.38;12.45;;;;;;;8.01;60.06;98907.53;5000231;28;20040;-65
2024/02/10 09:37:21;;;;;;;14.50;7.35;;;;;;;7.90;60.06;98908.16;5047314;28;20040;-66
2024/02/10 09:39:46;;;;;;;13.32;6.30;;;;;;;8.11;59.27;98903.44;5033592;28;20115;-67
2024/02/10 09:42:21;;;;;;;14.68;6.80;;;;;;;8.05;59.15;98909.00;5048567;28;20048;-67
2024/02/10 09:44:49;;;;;;;9.27;6.65;;;;;;;8.15;59.43;98909.28;5034558;28;20055;-67
2024/02/10 09:47:16;;;;;;;11.40;6.95;;;;;;;8.21;59.47;98908.91;5027095;28;21061;-66
2024/02/10 09:49:42;;;;;;;13.55;7.07;;;;;;;8.11;59.38;98913.00;5055408;28;20032;-66
2024/02/10 09:52:11;;;;;;;9.90;5.80;;;;;;;8.22;59.27;98915.78;5044107;28;20036;-66
2024/02/10 09:54:37;;;;;;;12.65;6.50;;;;;;;8.46;59.04;98912.59;5057667;28;20070;-66
2024/02/10 09:57:03;;;;;;;11.18;6.25;;;;;;;8.40;58.88;98911.19;5049785;28;20714;-66
2024/02/10 09:59:29;;;;;;;7.95;6.30;;;;;;;8.41;59.20;98915.50;5056298;28;20035;-66
2024/02/10 10:01:57;;;;;;;11.15;5.90;;;;;;;8.48;59.29;98919.38;5050984;28;20429;-66
2024/02/10 10:04:23;;;;;;;10.82;6.72;;;;;;;8.53;59.31;98921.69;5036775;28;20998;-65
2024/02/10 10:06:49;;;;;;;7.07;5.45;;;;;;;8.57;58.49;98921.41;5054549;28;20062;-67
2024/02/10 10:09:21;;;;;;;12.13;6.57;;;;;;;8.80;58.55;98916.53;5020695;28;20211;-66
2024/02/10 10:11:50;;;;;;;12.40;5.28;;;;;;;8.69;58.67;98921.56;5025490;28;20437;-65
2024/02/10 10:14:18;;;;;;;8.10;5.63;;;;;;;8.56;58.56;98924.94;4992410;28;20280;-65
2024/02/10 10:17:14;;;;;;;7.95;4.85;;;;;;;8.92;57.40;98928.78;4996589;28;20295;-65
2024/02/10 10:19:43;;;;;;;8.52;5.20;;;;;;;9.18;57.69;98932.28;4994239;28;20433;-65
2024/02/10 10:22:09;;;;;;;9.20;5.35;;;;;;;8.83;57.91;98932.00;5015494;28;20047;-64
2024/02/10 10:24:38;;;;;;;10.68;5.43;;;;;;;9.08;57.42;98935.63;5004563;28;20075;-64
2024/02/10 10:27:04;;;;;;;7.55;4.95;;;;;;;8.78;57.62;98931.41;4952460;28;20177;-64
2024/02/10 10:29:33;;;;;;;9.07;4.88;;;;;;;8.90;57.42;98933.25;4975811;28;20147;-65
2024/02/10 10:32:02;;;;;;;8.70;4.80;;;;;;;8.77;57.79;98932.38;5002250;28;20524;-64
2024/02/10 10:34:31;;;;;;;9.70;4.50;;;;;;;9.13;57.00;98938.75;5007536;28;20062;-65
2024/02/10 10:37:00;;;;;;;8.40;4.85;;;;;;;9.02;57.43;98942.06;5049575;28;20047;-64
2024/02/10 10:39:27;;;;;;;8.07;4.88;;;;;;;9.33;56.64;98938.28;5057304;28;20486;-63
2024/02/10 10:41:55;;;;;;;10.65;4.70;;;;;;;9.16;56.60;98938.56;5056007;28;20052;-66
2024/02/10 10:44:21;;;;;;;10.48;5.32;;;;;;;9.02;56.83;98929.03;5046893;28;20032;-66
2024/02/10 10:46:48;;;;;;;8.45;5.07;;;;;;;8.94;57.20;98937.34;5032094;28;20079;-66
2024/02/10 10:49:14;;;;;;;11.88;4.22;;;;;;;8.87;57.44;98943.84;5046191;28;20141;-66
2024/02/10 10:52:01;;;;;;;11.95;4.28;;;;;;;8.98;57.42;98951.00;5009320;28;20739;-66
2024/02/10 10:54:32;;;;;;;7.00;5.05;;;;;;;8.85;57.47;98943.16;4993657;28;20101;-65
2024/02/10 10:57:02;;;;;;;9.63;5.30;;;;;;;8.54;58.08;98936.41;5054650;28;20051;-64
2024/02/10 10:59:35;;;;;;;9.75;5.05;;;;;;;9.15;57.32;98948.16;5040488;28;20069;-65
2024/02/10 11:02:06;;;;;;;12.70;5.63;;;;;;;9.19;57.35;98954.84;5049807;28;20044;-65
2024/02/10 11:04:33;;;;;;;9.18;4.78;;;;;;;8.79;57.96;98955.72;5024440;28;20040;-66
2024/02/10 11:06:59;;;;;;;8.30;4.82;;;;;;;9.01;57.51;98952.56;5041825;28;20047;-65
2024/02/10 11:09:26;;;;;;;9.15;5.22;;;;;;;8.92;57.86;98946.19;5019879;28;20031;-66
2024/02/10 11:11:52;;;;;;;9.68;5.90;;;;;;;9.16;57.28;98948.97;5056110;28;20036;-65
2024/02/10 11:14:18;;;;;;;9.73;5.78;;;;;;;8.96;57.53;98948.50;5044988;28;20493;-66
2024/02/10 11:16:43;;;;;;;8.50;4.85;;;;;;;9.22;57.02;98950.38;5036210;28;20036;-66
2024/02/10 11:19:13;;;;;;;9.32;5.50;;;;;;;9.36;56.77;98945.91;5046704;28;20410;-66
2024/02/10 11:21:40;;;;;;;15.45;5.68;;;;;;;9.15;57.52;98937.72;5039462;28;20076;-65
2024/02/10 11:24:08;;;;;;;13.48;6.55;;;;;;;9.48;56.92;98938.25;5027994;28;20036;-65
2024/02/10 11:26:38;;;;;;;9.23;6.05;;;;;;;9.48;56.85;98938.25;5055099;28;20113;-66
2024/02/10 11:29:06;;;;;;;8.48;5.68;;;;;;;9.54;56.78;98932.59;5051902;28;20105;-65
2024/02/10 11:31:34;;;;;;;8.95;5.53;;;;;;;9.33;56.83;98927.88;5037826;28;20110;-66
2024/02/10 11:34:11;;;;;;;9.48;5.47;;;;;;;9.74;56.38;98924.25;5057783;28;20063;-66